Time;durP1;ratioP1;P1;durP2;ratioP2;P2;SDS_P1;SDS_P2;PMS_P1;PMS_P2;Temp;Humidity;BMP_temperature;BMP_pressure;BME280_temperature;BME280_humidity;BME280_pressure;Samples;Min_cycle;Max_cycle;Signal;HPM_P1;HPM_P2
2021/12/01 00:01:35;;;;;;;0.80;0.70;;;;;;;;;;5031591;28;20452;-92
2021/12/01 00:04:01;;;;;;;0.80;0.80;;;;;;;;;;5012116;28;20438;-92
2021/12/01 00:06:28;;;;;;;0.80;0.73;;;;;;;;;;5029347;28;21041;-91
2021/12/01 00:08:54;;;;;;;0.90;0.90;;;;;;;;;;5033181;28;20422;-91
2021/12/01 00:11:20;;;;;;;0.80;0.80;;;;;;;;;;5030649;28;20776;-91
2021/12/01 00:13:46;;;;;;;0.97;0.90;;;;;;;;;;5032005;28;20914;-91
2021/12/01 00:16:12;;;;;;;1.10;1.00;;;;;;;;;;5032347;28;20453;-91
2021/12/01 00:18:37;;;;;;;0.80;0.80;;;;;;;;;;5030888;28;20446;-92
2021/12/01 00:21:03;;;;;;;1.00;0.90;;;;;;;;;;5031309;28;20533;-92
2021/12/01 00:23:29;;;;;;;0.97;0.90;;;;;;;;;;5013890;28;20515;-92
2021/12/01 00:25:55;;;;;;;1.33;1.23;;;;;;;;;;5032290;28;20473;-92
2021/12/01 00:28:21;;;;;;;0.80;0.70;;;;;;;;;;5031717;28;20874;-92
2021/12/01 00:30:48;;;;;;;1.00;0.90;;;;;;;;;;5026500;28;20446;-91
2021/12/01 00:33:17;;;;;;;1.00;0.90;;;;;;;;;;5032411;28;20434;-91
2021/12/01 00:35:43;;;;;;;3.77;3.40;;;;;;;;;;5031482;28;20446;-91
2021/12/01 00:38:09;;;;;;;1.00;0.90;;;;;;;;;;5032326;28;21091;-91
2021/12/01 00:40:35;;;;;;;0.80;0.80;;;;;;;;;;5032642;28;20449;-92
2021/12/01 00:43:01;;;;;;;0.80;0.80;;;;;;;;;;5032439;28;20426;-92
2021/12/01 00:45:29;;;;;;;0.80;0.80;;;;;;;;;;5029481;28;20510;-92
2021/12/01 00:47:55;;;;;;;0.80;0.80;;;;;;;;;;5030647;28;20597;-92
2021/12/01 00:50:32;;;;;;;0.80;0.77;;;;;;;;;;5034402;28;20961;-91
2021/12/01 00:53:01;;;;;;;0.80;0.70;;;;;;;;;;5025590;28;20441;-91
2021/12/01 00:55:27;;;;;;;0.87;0.80;;;;;;;;;;5030907;28;20462;-91
2021/12/01 00:57:54;;;;;;;1.00;0.90;;;;;;;;;;5031042;28;20492;-92
2021/12/01 01:00:21;;;;;;;0.80;0.80;;;;;;;;;;5029784;28;20513;-91
2021/12/01 01:02:47;;;;;;;3.73;2.00;;;;;;;;;;5023448;28;20442;-91
2021/12/01 01:05:14;;;;;;;1.00;0.90;;;;;;;;;;5030514;28;20474;-91
2021/12/01 01:07:40;;;;;;;2.00;1.90;;;;;;;;;;5031573;28;20529;-91
2021/12/01 01:10:25;;;;;;;1.10;1.00;;;;;;;;;;5031480;28;20430;-91
2021/12/01 01:18:22;;;;;;;0.87;0.80;;;;;;;;;;5025630;28;20429;-92
2021/12/01 01:20:48;;;;;;;1.00;0.90;;;;;;;;;;5031940;28;20603;-91
2021/12/01 01:23:14;;;;;;;0.80;0.70;;;;;;;;;;5031005;28;20422;-92
2021/12/01 01:25:40;;;;;;;1.23;1.13;;;;;;;;;;5011752;28;20480;-92
2021/12/01 01:28:06;;;;;;;0.80;0.80;;;;;;;;;;5030612;28;20440;-91
2021/12/01 01:30:33;;;;;;;0.80;0.80;;;;;;;;;;5027812;28;20532;-92
2021/12/01 01:32:59;;;;;;;1.00;0.90;;;;;;;;;;5031793;28;20426;-92
2021/12/01 01:35:26;;;;;;;1.00;0.90;;;;;;;;;;5030544;28;20538;-91
2021/12/01 01:37:52;;;;;;;0.90;0.80;;;;;;;;;;5030829;28;20449;-93
2021/12/01 01:40:19;;;;;;;0.80;0.70;;;;;;;;;;5029836;28;20824;-91
2021/12/01 01:42:45;;;;;;;1.00;0.90;;;;;;;;;;5013143;28;20446;-91
2021/12/01 01:45:12;;;;;;;0.80;0.70;;;;;;;;;;5017678;28;20478;-92
2021/12/01 01:47:47;;;;;;;1.00;0.90;;;;;;;;;;5035552;28;20473;-91
2021/12/01 01:52:39;;;;;;;0.80;0.80;;;;;;;;;;5031730;28;20462;-91
2021/12/01 01:55:05;;;;;;;0.80;0.80;;;;;;;;;;5030196;28;20529;-92
2021/12/01 01:57:31;;;;;;;0.83;0.80;;;;;;;;;;5034842;28;20430;-92
2021/12/01 01:59:57;;;;;;;0.90;0.80;;;;;;;;;;5012219;28;21359;-90
2021/12/01 02:02:23;;;;;;;0.80;0.80;;;;;;;;;;5030898;28;20581;-93
2021/12/01 02:04:49;;;;;;;0.80;0.73;;;;;;;;;;5008356;28;20443;-93
2021/12/01 02:07:15;;;;;;;0.83;0.80;;;;;;;;;;5031872;28;20529;-93
2021/12/01 02:09:40;;;;;;;0.83;0.80;;;;;;;;;;5030575;28;20488;-93
2021/12/01 02:12:07;;;;;;;0.83;0.83;;;;;;;;;;5031606;28;20442;-91
2021/12/01 02:14:33;;;;;;;0.80;0.80;;;;;;;;;;5029565;28;20438;-93
2021/12/01 02:16:59;;;;;;;0.80;0.80;;;;;;;;;;5010823;28;20788;-92
2021/12/01 02:19:25;;;;;;;0.80;0.80;;;;;;;;;;5029687;28;20422;-91
2021/12/01 02:21:51;;;;;;;0.80;0.70;;;;;;;;;;5032054;28;20508;-91
2021/12/01 02:24:19;;;;;;;0.70;0.70;;;;;;;;;;5029125;28;20545;-93
2021/12/01 02:26:47;;;;;;;0.80;0.70;;;;;;;;;;5029734;28;20481;-92
2021/12/01 02:29:14;;;;;;;0.80;0.80;;;;;;;;;;5030412;28;20500;-92
2021/12/01 02:31:43;;;;;;;0.80;0.80;;;;;;;;;;5031621;28;20438;-94
2021/12/01 02:34:10;;;;;;;0.80;0.70;;;;;;;;;;5006803;28;20583;-92
2021/12/01 02:36:36;;;;;;;0.80;0.80;;;;;;;;;;5032296;28;20794;-92
2021/12/01 02:39:05;;;;;;;0.80;0.80;;;;;;;;;;5013145;28;20849;-92
2021/12/01 02:41:32;;;;;;;0.80;0.80;;;;;;;;;;5030928;28;20462;-92
2021/12/01 02:43:59;;;;;;;0.80;0.80;;;;;;;;;;5009582;28;20446;-92
2021/12/01 02:46:25;;;;;;;0.80;0.70;;;;;;;;;;5013949;28;20520;-94
2021/12/01 02:48:52;;;;;;;0.80;0.80;;;;;;;;;;5028804;28;20514;-93
2021/12/01 02:51:19;;;;;;;0.80;0.80;;;;;;;;;;5030466;28;20505;-92
2021/12/01 02:53:45;;;;;;;0.80;0.70;;;;;;;;;;5030170;28;20990;-92
2021/12/01 02:56:11;;;;;;;0.80;0.70;;;;;;;;;;5023938;28;20446;-91
2021/12/01 02:58:40;;;;;;;0.80;0.70;;;;;;;;;;5028330;28;20441;-90
2021/12/01 03:01:09;;;;;;;0.80;0.80;;;;;;;;;;5028513;28;20450;-89
2021/12/01 03:03:35;;;;;;;0.80;0.80;;;;;;;;;;5030075;28;20438;-89
2021/12/01 03:06:03;;;;;;;0.87;0.87;;;;;;;;;;5030190;28;20481;-88
2021/12/01 03:08:29;;;;;;;0.80;0.70;;;;;;;;;;5030261;28;20532;-89
2021/12/01 03:10:55;;;;;;;0.80;0.80;;;;;;;;;;5012668;28;20441;-87
2021/12/01 03:13:22;;;;;;;0.80;0.70;;;;;;;;;;5024064;28;20438;-88
2021/12/01 03:15:48;;;;;;;0.80;0.80;;;;;;;;;;5026702;28;20441;-86
2021/12/01 03:18:15;;;;;;;2.07;1.97;;;;;;;;;;5012644;28;20444;-87
2021/12/01 03:20:41;;;;;;;0.90;0.90;;;;;;;;;;5026036;28;20492;-87
2021/12/01 03:23:07;;;;;;;0.70;0.60;;;;;;;;;;5011572;28;20462;-86
2021/12/01 03:25:33;;;;;;;0.80;0.70;;;;;;;;;;5012435;28;20479;-86
2021/12/01 03:28:00;;;;;;;0.80;0.70;;;;;;;;;;5030646;28;20468;-89
2021/12/01 03:30:26;;;;;;;0.80;0.80;;;;;;;;;;5029888;28;20445;-87
2021/12/01 03:32:52;;;;;;;1.10;1.00;;;;;;;;;;5031724;28;20450;-90
2021/12/01 03:35:18;;;;;;;0.80;0.80;;;;;;;;;;5015200;28;20430;-88
2021/12/01 03:37:45;;;;;;;0.83;0.83;;;;;;;;;;5029052;28;20481;-88
2021/12/01 03:40:11;;;;;;;0.90;0.90;;;;;;;;;;5032493;28;20445;-89
2021/12/01 03:42:38;;;;;;;0.80;0.80;;;;;;;;;;5030328;28;20512;-86
2021/12/01 03:45:04;;;;;;;0.80;0.80;;;;;;;;;;5030439;28;20536;-87
2021/12/01 03:47:30;;;;;;;0.80;0.70;;;;;;;;;;5027744;28;20489;-88
2021/12/01 03:49:56;;;;;;;0.70;0.70;;;;;;;;;;5030212;28;20445;-88
2021/12/01 03:52:23;;;;;;;0.80;0.80;;;;;;;;;;5030896;28;20446;-87
2021/12/01 03:54:50;;;;;;;0.80;0.80;;;;;;;;;;5011779;28;20461;-87
2021/12/01 03:57:16;;;;;;;0.80;0.80;;;;;;;;;;5029696;28;20863;-86
2021/12/01 03:59:42;;;;;;;0.70;0.70;;;;;;;;;;5031880;28;20492;-88
2021/12/01 04:02:08;;;;;;;0.80;0.70;;;;;;;;;;5030622;28;20453;-88
2021/12/01 04:04:34;;;;;;;0.80;0.80;;;;;;;;;;5013744;28;20941;-88
2021/12/01 04:07:00;;;;;;;0.80;0.80;;;;;;;;;;5018246;28;20482;-91
2021/12/01 04:09:26;;;;;;;0.73;0.70;;;;;;;;;;5017265;28;20442;-90
2021/12/01 04:11:52;;;;;;;0.80;0.80;;;;;;;;;;5030106;28;20957;-88
2021/12/01 04:14:18;;;;;;;0.80;0.80;;;;;;;;;;5029259;28;20424;-91
2021/12/01 04:16:44;;;;;;;0.80;0.77;;;;;;;;;;5021848;28;20445;-90
2021/12/01 04:19:10;;;;;;;0.80;0.77;;;;;;;;;;5034788;28;20457;-91
2021/12/01 04:21:36;;;;;;;0.80;0.70;;;;;;;;;;5032669;28;20446;-92
2021/12/01 04:24:02;;;;;;;0.80;0.80;;;;;;;;;;5032177;28;20512;-92
2021/12/01 04:26:31;;;;;;;0.80;0.70;;;;;;;;;;5022589;28;20482;-93
2021/12/01 04:28:58;;;;;;;0.70;0.60;;;;;;;;;;5023482;28;20439;-89
2021/12/01 04:31:24;;;;;;;1.67;1.10;;;;;;;;;;5027355;28;20454;-91
2021/12/01 04:33:50;;;;;;;0.80;0.80;;;;;;;;;;5031723;28;20438;-90
2021/12/01 04:36:17;;;;;;;0.80;0.70;;;;;;;;;;5014091;28;20955;-91
2021/12/01 04:38:43;;;;;;;0.77;0.60;;;;;;;;;;5013102;28;20450;-92
2021/12/01 04:41:12;;;;;;;0.80;0.80;;;;;;;;;;5030878;28;20466;-91
2021/12/01 04:43:38;;;;;;;0.80;0.80;;;;;;;;;;5014015;28;20533;-92
2021/12/01 04:46:05;;;;;;;0.80;0.70;;;;;;;;;;5003958;28;20586;-91
2021/12/01 04:48:31;;;;;;;0.80;0.70;;;;;;;;;;5011237;28;20438;-90
2021/12/01 04:50:57;;;;;;;0.80;0.67;;;;;;;;;;5007801;28;20457;-90
2021/12/01 04:53:25;;;;;;;0.80;0.80;;;;;;;;;;4994200;28;20443;-92
2021/12/01 04:55:51;;;;;;;0.80;0.70;;;;;;;;;;4988676;28;20505;-90
2021/12/01 04:58:17;;;;;;;0.83;0.80;;;;;;;;;;4994738;28;21311;-88
2021/12/01 05:00:43;;;;;;;0.80;0.80;;;;;;;;;;4991231;28;20515;-91
2021/12/01 05:03:09;;;;;;;0.87;0.87;;;;;;;;;;4991708;28;20511;-90
2021/12/01 05:05:35;;;;;;;0.80;0.70;;;;;;;;;;5010594;28;20475;-91
2021/12/01 05:08:01;;;;;;;0.80;0.70;;;;;;;;;;4993409;28;20463;-90
2021/12/01 05:10:27;;;;;;;0.80;0.77;;;;;;;;;;4993952;28;20458;-91
2021/12/01 05:12:53;;;;;;;0.80;0.70;;;;;;;;;;5010092;28;21096;-90
2021/12/01 05:15:19;;;;;;;0.80;0.70;;;;;;;;;;4985230;28;20440;-92
2021/12/01 05:17:45;;;;;;;0.80;0.80;;;;;;;;;;4993665;28;20455;-91
2021/12/01 05:20:12;;;;;;;0.80;0.70;;;;;;;;;;4992633;28;20943;-92
2021/12/01 05:22:38;;;;;;;0.80;0.80;;;;;;;;;;5011108;28;20474;-91
2021/12/01 05:25:05;;;;;;;0.80;0.80;;;;;;;;;;5010737;28;20431;-91
2021/12/01 05:27:31;;;;;;;0.80;0.73;;;;;;;;;;4995921;28;20438;-90
2021/12/01 05:29:57;;;;;;;0.80;0.70;;;;;;;;;;5011257;28;20954;-91
2021/12/01 05:32:23;;;;;;;0.80;0.70;;;;;;;;;;4991741;28;20554;-93
2021/12/01 05:34:49;;;;;;;0.77;0.70;;;;;;;;;;4993320;28;20430;-92
2021/12/01 05:37:15;;;;;;;0.80;0.70;;;;;;;;;;5006775;28;20431;-92
2021/12/01 05:39:44;;;;;;;0.80;0.70;;;;;;;;;;5010032;28;20803;-90
2021/12/01 05:42:10;;;;;;;0.80;0.70;;;;;;;;;;4992955;28;20510;-89
2021/12/01 05:44:36;;;;;;;0.80;0.80;;;;;;;;;;4993091;28;20439;-91
2021/12/01 05:47:02;;;;;;;0.80;0.80;;;;;;;;;;5009461;28;20505;-92
2021/12/01 05:49:28;;;;;;;0.80;0.67;;;;;;;;;;4993079;28;20930;-89
2021/12/01 05:51:54;;;;;;;1.20;1.10;;;;;;;;;;4991331;28;20509;-92
2021/12/01 05:54:20;;;;;;;0.80;0.80;;;;;;;;;;4993346;28;20428;-91
2021/12/01 05:56:46;;;;;;;0.80;0.70;;;;;;;;;;5009948;28;20505;-90
2021/12/01 05:59:12;;;;;;;0.80;0.70;;;;;;;;;;4987790;28;21224;-93
2021/12/01 06:01:39;;;;;;;0.80;0.80;;;;;;;;;;5008398;28;20447;-91
2021/12/01 06:04:04;;;;;;;0.80;0.70;;;;;;;;;;4999807;28;20507;-93
2021/12/01 06:06:31;;;;;;;0.80;0.70;;;;;;;;;;4989523;28;21071;-94
2021/12/01 06:08:56;;;;;;;0.80;0.77;;;;;;;;;;5010065;28;20478;-90
2021/12/01 06:11:23;;;;;;;0.80;0.70;;;;;;;;;;5011064;28;20439;-93
2021/12/01 06:13:53;;;;;;;0.80;0.70;;;;;;;;;;4993709;28;20432;-93
2021/12/01 06:16:22;;;;;;;0.80;0.80;;;;;;;;;;4993244;28;20887;-92
2021/12/01 06:18:48;;;;;;;0.80;0.70;;;;;;;;;;4993502;28;20462;-92
2021/12/01 06:21:14;;;;;;;0.80;0.60;;;;;;;;;;5017384;28;20947;-91
2021/12/01 06:23:41;;;;;;;2.33;2.13;;;;;;;;;;5011755;28;20450;-89
2021/12/01 06:26:07;;;;;;;0.80;0.70;;;;;;;;;;4993810;28;20911;-90
2021/12/01 06:28:32;;;;;;;0.80;0.70;;;;;;;;;;5011935;28;20466;-92
2021/12/01 06:30:58;;;;;;;1.93;1.83;;;;;;;;;;4993531;28;20458;-90
2021/12/01 06:33:24;;;;;;;0.80;0.80;;;;;;;;;;5009787;28;20519;-93
2021/12/01 06:35:52;;;;;;;0.80;0.67;;;;;;;;;;4993863;28;20906;-93
2021/12/01 06:38:18;;;;;;;0.80;0.70;;;;;;;;;;5000220;28;20423;-91
2021/12/01 06:40:44;;;;;;;0.80;0.80;;;;;;;;;;5000196;28;20861;-94
2021/12/01 06:43:10;;;;;;;0.80;0.80;;;;;;;;;;5000577;28;20430;-90
2021/12/01 06:45:36;;;;;;;0.80;0.80;;;;;;;;;;5017534;28;20485;-92
2021/12/01 06:48:02;;;;;;;0.80;0.80;;;;;;;;;;5006078;28;20422;-92
2021/12/01 06:50:28;;;;;;;0.80;0.80;;;;;;;;;;5015001;28;21018;-93
2021/12/01 06:52:54;;;;;;;0.80;0.80;;;;;;;;;;5013860;28;20455;-95
2021/12/01 06:55:20;;;;;;;0.80;0.70;;;;;;;;;;5014664;28;20512;-94
2021/12/01 06:57:46;;;;;;;0.80;0.80;;;;;;;;;;5006503;28;20475;-94
2021/12/01 07:00:13;;;;;;;1.87;1.70;;;;;;;;;;4999793;28;20427;-93
2021/12/01 07:02:39;;;;;;;0.80;0.60;;;;;;;;;;5017861;28;20434;-94
2021/12/01 07:05:05;;;;;;;0.80;0.80;;;;;;;;;;5014264;28;20541;-94
2021/12/01 07:07:31;;;;;;;0.80;0.80;;;;;;;;;;5001379;28;20467;-93
2021/12/01 07:09:57;;;;;;;0.77;0.63;;;;;;;;;;5019211;28;20464;-92
2021/12/01 07:12:23;;;;;;;0.80;0.70;;;;;;;;;;5009787;28;20448;-92
2021/12/01 07:14:50;;;;;;;0.80;0.70;;;;;;;;;;4995150;28;20474;-90
2021/12/01 07:17:15;;;;;;;0.80;0.70;;;;;;;;;;5019102;28;20485;-89
2021/12/01 07:19:42;;;;;;;0.80;0.70;;;;;;;;;;4993719;28;20935;-94
2021/12/01 07:22:08;;;;;;;0.80;0.70;;;;;;;;;;5019291;28;20446;-94
2021/12/01 07:24:34;;;;;;;1.00;0.90;;;;;;;;;;5018753;28;20431;-92
2021/12/01 07:27:00;;;;;;;0.80;0.73;;;;;;;;;;4998451;28;20978;-90
2021/12/01 07:29:26;;;;;;;0.80;0.67;;;;;;;;;;5001130;28;20431;-91
2021/12/01 07:31:52;;;;;;;0.80;0.60;;;;;;;;;;5018623;28;20439;-95
2021/12/01 07:34:18;;;;;;;0.80;0.60;;;;;;;;;;5023550;28;20435;-89
2021/12/01 07:36:44;;;;;;;0.80;0.70;;;;;;;;;;5019440;28;20442;-93
2021/12/01 07:39:10;;;;;;;0.80;0.60;;;;;;;;;;5009022;28;20443;-92
2021/12/01 07:41:36;;;;;;;0.80;0.70;;;;;;;;;;5022360;28;20427;-92
2021/12/01 07:44:02;;;;;;;2.40;1.67;;;;;;;;;;5003941;28;20431;-90
2021/12/01 07:46:27;;;;;;;0.80;0.70;;;6.20;99.90;;;;;;5023390;28;20493;-92
2021/12/01 07:48:53;;;;;;;2.50;2.30;;;;;;;;;;5017705;28;20442;-91
2021/12/01 07:51:19;;;;;;;0.80;0.70;;;;;;;;;;5037593;28;20200;-94
2021/12/01 07:53:45;;;;;;;0.80;0.63;;;;;;;;;;5015622;28;20435;-92
2021/12/01 07:56:12;;;;;;;0.80;0.80;;;;;;;;;;5035153;28;20434;-94
2021/12/01 07:58:38;;;;;;;1.53;1.43;;;;;;;;;;5035209;28;20913;-94
2021/12/01 08:01:04;;;;;;;0.80;0.70;;;;;;;;;;5017943;28;20438;-91
2021/12/01 08:03:30;;;;;;;0.80;0.70;;;;;;;;;;5036502;28;20525;-93
2021/12/01 08:05:56;;;;;;;0.80;0.70;;;;;;;;;;5019279;28;20462;-95
2021/12/01 08:08:22;;;;;;;1.10;1.00;;;;;;;;;;5030152;28;20541;-94
2021/12/01 08:10:48;;;;;;;0.90;0.90;;;;;;;;;;5033619;28;20430;-92
2021/12/01 08:13:14;;;;;;;0.80;0.60;;;;;;;;;;5035190;28;20441;-95
2021/12/01 08:15:40;;;;;;;0.80;0.60;;;;;;;;;;5034906;28;20426;-94
2021/12/01 08:18:06;;;;;;;0.80;0.63;;;6.80;99.90;;;;;;5016636;28;20922;-94
2021/12/01 08:20:33;;;;;;;0.80;0.60;;;7.20;99.90;;;;;;5022450;28;20501;-92
2021/12/01 08:22:59;;;;;;;0.80;0.60;;;7.20;99.90;;;;;;5040371;28;20178;-93
2021/12/01 08:25:25;;;;;;;0.80;0.60;;;7.30;99.90;;;;;;5041189;28;20502;-93
2021/12/01 08:27:50;;;;;;;0.80;0.70;;;7.50;99.90;;;;;;5036966;28;20266;-95
2021/12/01 08:30:16;;;;;;;0.80;0.70;;;7.50;99.90;;;;;;5020996;28;20203;-93
2021/12/01 08:32:45;;;;;;;0.80;0.70;;;7.50;99.90;;;;;;5020225;28;20188;-96
2021/12/01 08:35:12;;;;;;;1.20;1.10;;;7.50;99.90;;;;;;5020750;28;20228;-94
2021/12/01 08:37:38;;;;;;;0.80;0.70;;;7.60;99.90;;;;;;5033031;28;20426;-93
2021/12/01 08:40:05;;;;;;;4.50;2.13;;;7.50;99.90;;;;;;5038476;28;20531;-94
2021/12/01 08:42:30;;;;;;;0.80;0.70;;;7.60;99.90;;;;;;5023721;28;20496;-95
2021/12/01 08:44:56;;;;;;;0.80;0.70;;;7.60;99.90;;;;;;5018744;28;20442;-95
2021/12/01 08:47:24;;;;;;;1.00;0.90;;;7.70;99.90;;;;;;5019037;28;20719;-95
2021/12/01 08:49:51;;;;;;;1.00;0.90;;;7.70;99.90;;;;;;5016019;28;20197;-94
2021/12/01 08:52:17;;;;;;;0.80;0.70;;;7.60;99.90;;;;;;5013658;28;20529;-95
2021/12/01 08:54:43;;;;;;;0.80;0.63;;;7.70;99.90;;;;;;4997335;28;20440;-94
2021/12/01 08:57:09;;;;;;;1.40;0.93;;;7.70;99.90;;;;;;5014562;28;21080;-94
2021/12/01 08:59:36;;;;;;;0.80;0.70;;;7.70;99.90;;;;;;4994698;28;20431;-93
2021/12/01 09:02:02;;;;;;;0.80;0.70;;;7.70;99.90;;;;;;5010223;28;20215;-93
2021/12/01 09:04:28;;;;;;;0.93;0.83;;;7.60;99.90;;;;;;5015062;28;20431;-95
2021/12/01 09:06:53;;;;;;;0.80;0.63;;;7.70;99.90;;;;;;5013656;28;20479;-91
2021/12/01 09:09:19;;;;;;;7.50;1.63;;;7.60;99.90;;;;;;5004757;28;20798;-94
2021/12/01 09:11:51;;;;;;;0.80;0.70;;;7.60;99.90;;;;;;4998565;28;20254;-91
2021/12/01 09:14:17;;;;;;;0.80;0.70;;;7.70;99.90;;;;;;4996294;28;20184;-93
2021/12/01 09:16:44;;;;;;;0.80;0.70;;;7.70;99.90;;;;;;4998529;28;20443;-92
2021/12/01 09:19:09;;;;;;;0.80;0.70;;;7.60;99.90;;;;;;5007146;28;20444;-93
2021/12/01 09:21:35;;;;;;;0.80;0.70;;;7.70;99.90;;;;;;5014588;28;20442;-90
2021/12/01 09:24:01;;;;;;;1.40;1.10;;;7.70;99.90;;;;;;5013615;28;20691;-93
2021/12/01 09:26:27;;;;;;;0.80;0.60;;;7.60;99.90;;;;;;4983110;28;20484;-91
2021/12/01 09:28:53;;;;;;;0.80;0.70;;;7.60;99.90;;;;;;5009763;28;20419;-93
2021/12/01 09:31:19;;;;;;;0.80;0.70;;;7.70;99.90;;;;;;5014413;28;20742;-95
2021/12/01 09:33:44;;;;;;;0.80;0.70;;;7.60;99.90;;;;;;5013803;28;20187;-92
2021/12/01 09:36:11;;;;;;;0.80;0.60;;;7.60;99.90;;;;;;4994628;28;20173;-94
2021/12/01 09:38:36;;;;;;;1.33;1.23;;;7.60;99.90;;;;;;4995374;28;20199;-88
2021/12/01 09:41:02;;;;;;;0.80;0.60;;;7.60;99.90;;;;;;5005256;28;20439;-94
2021/12/01 09:43:31;;;;;;;0.80;0.70;;;7.60;99.90;;;;;;4997226;28;20191;-91
2021/12/01 09:45:58;;;;;;;0.80;0.60;;;7.60;99.90;;;;;;4987929;28;20707;-93
2021/12/01 09:48:24;;;;;;;0.80;0.63;;;7.60;99.90;;;;;;5024009;28;20993;-92
2021/12/01 09:50:50;;;;;;;0.80;0.60;;;7.60;99.90;;;;;;5003278;28;20438;-93
2021/12/01 09:53:16;;;;;;;0.83;0.70;;;7.60;99.90;;;;;;5017717;28;20427;-95
2021/12/01 09:55:43;;;;;;;0.80;0.60;;;7.60;99.90;;;;;;5034446;28;20501;-95
2021/12/01 09:58:20;;;;;;;0.80;0.60;;;7.60;99.90;;;;;;5030396;28;20434;-95
2021/12/01 10:00:52;;;;;;;0.80;0.70;;;7.60;99.90;;;;;;5032673;28;20441;-91
2021/12/01 10:03:18;;;;;;;3.63;1.67;;;7.60;99.90;;;;;;5032123;28;20458;-94
2021/12/01 10:05:48;;;;;;;1.10;0.90;;;7.60;99.90;;;;;;5021883;28;20522;-94
2021/12/01 10:08:47;;;;;;;0.80;0.60;;;7.50;99.90;;;;;;5032197;28;20442;-94
2021/12/01 10:11:17;;;;;;;0.80;0.60;;;7.60;99.90;;;;;;5017999;28;20438;-92
2021/12/01 10:13:54;;;;;;;0.80;0.70;;;7.60;99.90;;;;;;5032869;28;21068;-93
2021/12/01 10:16:22;;;;;;;0.80;0.60;;;7.60;99.90;;;;;;5013135;28;20536;-94
2021/12/01 10:18:53;;;;;;;0.80;0.70;;;7.60;99.90;;;;;;5027395;28;20496;-94
2021/12/01 10:21:29;;;;;;;1.03;0.87;;;7.60;99.90;;;;;;5033013;28;20429;-93
2021/12/01 10:23:58;;;;;;;0.80;0.70;;;7.60;99.90;;;;;;5032457;28;20933;-95
2021/12/01 10:26:32;;;;;;;0.80;0.70;;;7.60;99.90;;;;;;5033345;28;20486;-94
2021/12/01 10:29:00;;;;;;;0.80;0.70;;;7.60;99.90;;;;;;5012818;28;20457;-96
2021/12/01 10:31:45;;;;;;;0.80;0.60;;;7.70;99.90;;;;;;5025005;28;20466;-92
2021/12/01 10:34:26;;;;;;;0.80;0.60;;;7.70;99.90;;;;;;5035974;28;20422;-92
2021/12/01 10:37:26;;;;;;;0.80;0.70;;;7.70;99.90;;;;;;5028234;28;20464;-95
2021/12/01 10:40:20;;;;;;;0.80;0.70;;;7.70;99.90;;;;;;5021711;28;20434;-94
2021/12/01 10:43:08;;;;;;;0.80;0.70;;;7.70;99.90;;;;;;5024258;28;20443;-94
2021/12/01 10:45:41;;;;;;;1.00;0.90;;;7.70;99.90;;;;;;5022407;28;20501;-93
2021/12/01 10:48:09;;;;;;;0.80;0.60;;;7.70;99.90;;;;;;5029672;28;20474;-92
2021/12/01 10:50:38;;;;;;;1.27;1.03;;;7.60;99.90;;;;;;5031779;28;20440;-91
2021/12/01 10:53:17;;;;;;;0.80;0.60;;;7.70;99.90;;;;;;5011877;28;20450;-94
2021/12/01 10:55:47;;;;;;;0.80;0.70;;;7.60;99.90;;;;;;5010073;28;20453;-94
2021/12/01 10:58:13;;;;;;;0.80;0.60;;;7.70;99.90;;;;;;5017064;28;20456;-91
2021/12/01 11:00:43;;;;;;;0.80;0.70;;;7.60;99.90;;;;;;5032668;28;20576;-93
2021/12/01 11:03:13;;;;;;;0.80;0.60;;;7.60;99.90;;;;;;5012380;28;20446;-91
2021/12/01 11:05:43;;;;;;;0.80;0.63;;;7.60;99.90;;;;;;5023709;28;21220;-90
2021/12/01 11:08:15;;;;;;;0.80;0.60;;;7.60;99.90;;;;;;5031575;28;20499;-94
2021/12/01 11:10:42;;;;;;;0.80;0.70;;;7.60;99.90;;;;;;5030941;28;20437;-93
2021/12/01 11:13:09;;;;;;;0.80;0.70;;;7.60;99.90;;;;;;5030949;28;20590;-90
2021/12/01 11:15:40;;;;;;;1.33;0.90;;;7.60;99.90;;;;;;5043764;28;20419;-90
2021/12/01 11:18:08;;;;;;;0.80;0.70;;;7.60;99.90;;;;;;5031685;28;20445;-94
2021/12/01 11:20:48;;;;;;;0.80;0.60;;;7.60;99.90;;;;;;5032321;28;20926;-93
2021/12/01 11:23:23;;;;;;;0.80;0.60;;;7.60;99.90;;;;;;5032110;28;20445;-93
2021/12/01 11:25:54;;;;;;;1.57;1.47;;;7.60;99.90;;;;;;5029405;28;20496;-95
2021/12/01 11:28:25;;;;;;;1.87;1.77;;;7.60;99.90;;;;;;5030659;28;20439;-94
2021/12/01 11:30:55;;;;;;;0.80;0.60;;;7.60;99.90;;;;;;5018698;28;20442;-91
2021/12/01 11:33:22;;;;;;;0.80;0.70;;;7.60;99.90;;;;;;5033841;28;20515;-92
2021/12/01 11:35:52;;;;;;;0.80;0.60;;;7.60;99.90;;;;;;5031269;28;20545;-93
2021/12/01 11:38:18;;;;;;;0.80;0.70;;;7.60;99.90;;;;;;5018305;28;20437;-93
2021/12/01 11:40:44;;;;;;;0.80;0.60;;;7.60;99.90;;;;;;5036457;28;20453;-93
2021/12/01 11:43:11;;;;;;;0.80;0.70;;;7.60;99.90;;;;;;5035925;28;20918;-95
2021/12/01 11:45:39;;;;;;;0.80;0.70;;;;;;;;;;5017569;28;20486;-93
2021/12/01 11:48:08;;;;;;;0.80;0.70;;;;;;;;;;5013924;28;20530;-92
2021/12/01 11:50:36;;;;;;;0.80;0.60;;;;;;;;;;5002788;28;20443;-92
2021/12/01 11:53:22;;;;;;;1.07;0.97;;;;;;;;;;4998930;28;20454;-92
2021/12/01 11:55:47;;;;;;;0.80;0.70;;;;;;;;;;5018881;28;20431;-91
2021/12/01 11:58:33;;;;;;;0.80;0.70;;;;;;;;;;5016610;28;20462;-90
2021/12/01 12:00:59;;;;;;;0.80;0.70;;;;;;;;;;4994521;28;20521;-94
2021/12/01 12:03:26;;;;;;;0.80;0.60;;;;;;;;;;5015527;28;20443;-90
2021/12/01 12:06:10;;;;;;;0.80;0.70;;;;;;;;;;4990441;28;20480;-92
2021/12/01 12:08:55;;;;;;;0.80;0.60;;;;;;;;;;4990386;28;20431;-92
2021/12/01 12:11:38;;;;;;;0.80;0.70;;;;;;;;;;5011305;28;20467;-92
2021/12/01 12:14:22;;;;;;;0.80;0.70;;;;;;;;;;5013658;28;20443;-90
2021/12/01 12:17:07;;;;;;;0.80;0.60;;;;;;;;;;5012623;28;20427;-89
2021/12/01 12:19:50;;;;;;;0.80;0.70;;;;;;;;;;5014456;28;20782;-90
2021/12/01 12:22:21;;;;;;;0.80;0.60;;;;;;;;;;4997799;28;20471;-91
2021/12/01 12:24:57;;;;;;;0.80;0.70;;;;;;;;;;4996212;28;20435;-91
2021/12/01 12:27:35;;;;;;;0.80;0.67;;;;;;;;;;5014693;28;20475;-92
2021/12/01 12:30:03;;;;;;;0.80;0.60;;;;;;;;;;5009801;28;20538;-89
2021/12/01 12:32:30;;;;;;;0.80;0.70;;;;;;;;;;4994071;28;20485;-87
2021/12/01 12:34:57;;;;;;;0.80;0.73;;;;;;;;;;4995011;28;20431;-90
2021/12/01 12:37:24;;;;;;;0.80;0.70;;;;;;;;;;4997644;28;20434;-90
2021/12/01 12:39:52;;;;;;;1.27;1.17;;;;;;;;;;5014813;28;20440;-91
2021/12/01 12:42:18;;;;;;;0.80;0.60;;;;;;;;;;4996091;28;20957;-90
2021/12/01 12:44:46;;;;;;;0.80;0.63;;;;;;;;;;5015072;28;20436;-92
2021/12/01 12:47:13;;;;;;;0.80;0.60;;;;;;;;;;5012638;28;20496;-93
2021/12/01 12:49:41;;;;;;;0.80;0.60;;;;;;;;;;5035034;28;20431;-93
2021/12/01 12:52:26;;;;;;;0.80;0.60;;;;;;;;;;5035809;28;20415;-90
2021/12/01 12:54:57;;;;;;;0.80;0.60;;;;;;;;;;5029301;28;20430;-91
2021/12/01 12:57:27;;;;;;;0.80;0.60;;;;;;;;;;5034216;28;20449;-91
2021/12/01 13:00:11;;;;;;;0.80;0.60;;;;;;;;;;5016804;28;20431;-92
2021/12/01 13:02:37;;;;;;;0.80;0.60;;;;;;;;;;5041542;28;20448;-93
2021/12/01 13:05:05;;;;;;;0.80;0.60;;;;;;;;;;5019232;28;20994;-94
2021/12/01 13:07:35;;;;;;;0.80;0.70;;;;;;;;;;5017393;28;20470;-95
2021/12/01 13:10:07;;;;;;;0.80;0.70;;;;;;;;;;5038038;28;20442;-95
2021/12/01 13:12:44;;;;;;;0.80;0.63;;;;;;;;;;5016483;28;20794;-90
2021/12/01 13:15:20;;;;;;;0.80;0.60;;;;;;;;;;5017994;28;20421;-93
2021/12/01 13:17:47;;;;;;;0.80;0.60;;;;;;;;;;5016787;28;20442;-92
2021/12/01 13:20:13;;;;;;;0.80;0.60;;;;;;;;;;5017911;28;20422;-93
2021/12/01 13:22:39;;;;;;;0.80;0.60;;;;;;;;;;5017402;28;20427;-90
2021/12/01 13:25:07;;;;;;;0.80;0.70;;;;;;;;;;5032614;28;20510;-92
2021/12/01 13:27:43;;;;;;;0.80;0.60;;;;;;;;;;5019032;28;20494;-92
2021/12/01 13:30:12;;;;;;;0.80;0.60;;;;;;;;;;5019276;28;20566;-90
2021/12/01 13:32:38;;;;;;;0.80;0.60;;;;;;;;;;5034889;28;20430;-93
2021/12/01 13:35:05;;;;;;;0.80;0.70;;;;;;;;;;5035003;28;20445;-93
2021/12/01 13:37:30;;;;;;;0.80;0.70;;;7.60;99.90;;;;;;5018400;28;20430;-92
2021/12/01 13:39:56;;;;;;;0.80;0.70;;;7.60;99.90;;;;;;5035744;28;20902;-93
2021/12/01 13:42:24;;;;;;;0.80;0.60;;;7.60;99.90;;;;;;5017985;28;20195;-93
2021/12/01 13:44:51;;;;;;;0.80;0.70;;;7.60;99.90;;;;;;5031947;28;20184;-96
2021/12/01 13:47:22;;;;;;;0.80;0.70;;;7.50;99.90;;;;;;5017802;28;20482;-93
2021/12/01 13:49:53;;;;;;;0.80;0.60;;;7.50;99.90;;;;;;5014267;28;20433;-96
2021/12/01 13:52:37;;;;;;;0.80;0.60;;;7.40;99.90;;;;;;5035378;28;20968;-90
2021/12/01 13:55:32;;;;;;;0.80;0.70;;;7.40;99.90;;;;;;5030870;28;20427;-92
2021/12/01 13:58:13;;;;;;;0.80;0.63;;;7.30;99.90;;;;;;5024300;28;20430;-89
2021/12/01 14:00:47;;;;;;;0.80;0.70;;;7.20;99.90;;;;;;5022394;28;20827;-96
2021/12/01 14:03:16;;;;;;;0.80;0.70;;;7.20;99.90;;;;;;5022531;28;20457;-96
2021/12/01 14:05:45;;;;;;;0.80;0.70;;;7.10;99.90;;;;;;5041655;28;20449;-96
2021/12/01 14:08:20;;;;;;;1.27;1.17;;;7.10;99.90;;;;;;5003921;28;20451;-96
2021/12/01 14:11:24;;;;;;;0.80;0.60;;;7.00;99.90;;;;;;5021971;28;20513;-88
2021/12/01 14:13:52;;;;;;;0.80;0.70;;;7.00;99.90;;;;;;5009861;28;20476;-88
2021/12/01 14:16:23;;;;;;;0.80;0.60;;;7.00;99.90;;;;;;5028778;28;20980;-88
2021/12/01 14:18:50;;;;;;;0.80;0.60;;;7.10;99.90;;;;;;5011170;28;21013;-92
2021/12/01 14:21:19;;;;;;;0.80;0.70;;;7.00;99.90;;;;;;5029473;28;20442;-91
2021/12/01 14:23:48;;;;;;;0.90;0.70;;;7.00;99.90;;;;;;5012715;28;20473;-89